sensor_id;sensor_type;location;lat;lon;timestamp;pressure;altitude;pressure_sealevel;temperature;humidity
32492;BME280;20605;49.742;18.802;2023-01-28T00:01:36;98093.83;;;-1.72;100.00
32492;BME280;20605;49.742;18.802;2023-01-28T00:04:02;98091.00;;;-1.69;100.00
32492;BME280;20605;49.742;18.802;2023-01-28T00:06:28;98088.77;;;-1.70;100.00
32492;BME280;20605;49.742;18.802;2023-01-28T00:08:53;98087.42;;;-1.69;100.00
32492;BME280;20605;49.742;18.802;2023-01-28T00:11:20;98085.39;;;-1.68;100.00
32492;BME280;20605;49.742;18.802;2023-01-28T00:13:52;98085.69;;;-1.71;100.00
32492;BME280;20605;49.742;18.802;2023-01-28T00:16:18;98086.00;;;-1.71;100.00
32492;BME280;20605;49.742;18.802;2023-01-28T00:18:44;98084.43;;;-1.74;100.00
32492;BME280;20605;49.742;18.802;2023-01-28T00:21:12;98085.27;;;-1.74;100.00
32492;BME280;20605;49.742;18.802;2023-01-28T00:23:39;98080.45;;;-1.77;100.00
32492;BME280;20605;49.742;18.802;2023-01-28T00:26:11;98083.61;;;-1.80;100.00
32492;BME280;20605;49.742;18.802;2023-01-28T00:28:40;98080.19;;;-1.81;100.00
32492;BME280;20605;49.742;18.802;2023-01-28T00:31:15;98078.98;;;-1.81;100.00
32492;BME280;20605;49.742;18.802;2023-01-28T00:33:45;98078.86;;;-1.80;100.00
32492;BME280;20605;49.742;18.802;2023-01-28T00:36:11;98082.44;;;-1.79;100.00
32492;BME280;20605;49.742;18.802;2023-01-28T00:38:37;98078.02;;;-1.79;100.00
32492;BME280;20605;49.742;18.802;2023-01-28T00:41:15;98074.96;;;-1.79;100.00
32492;BME280;20605;49.742;18.802;2023-01-28T00:43:42;98076.80;;;-1.80;100.00
32492;BME280;20605;49.742;18.802;2023-01-28T00:46:10;98079.01;;;-1.81;100.00
32492;BME280;20605;49.742;18.802;2023-01-28T00:48:38;98077.46;;;-1.81;100.00
32492;BME280;20605;49.742;18.802;2023-01-28T00:51:06;98082.08;;;-1.80;100.00
32492;BME280;20605;49.742;18.802;2023-01-28T00:53:32;98082.93;;;-1.80;100.00
32492;BME280;20605;49.742;18.802;2023-01-28T00:56:07;98082.44;;;-1.79;100.00
32492;BME280;20605;49.742;18.802;2023-01-28T00:58:33;98086.38;;;-1.78;100.00
32492;BME280;20605;49.742;18.802;2023-01-28T01:01:09;98086.70;;;-1.79;100.00
32492;BME280;20605;49.742;18.802;2023-01-28T01:03:35;98087.02;;;-1.80;100.00
32492;BME280;20605;49.742;18.802;2023-01-28T01:06:01;98090.77;;;-1.80;100.00
32492;BME280;20605;49.742;18.802;2023-01-28T01:08:27;98093.84;;;-1.79;100.00
32492;BME280;20605;49.742;18.802;2023-01-28T01:11:00;98093.19;;;-1.78;100.00
32492;BME280;20605;49.742;18.802;2023-01-28T01:13:26;98088.45;;;-1.76;100.00
32492;BME280;20605;49.742;18.802;2023-01-28T01:16:01;98092.61;;;-1.74;100.00
32492;BME280;20605;49.742;18.802;2023-01-28T01:18:26;98092.84;;;-1.70;100.00
32492;BME280;20605;49.742;18.802;2023-01-28T01:20:52;98093.89;;;-1.70;100.00
32492;BME280;20605;49.742;18.802;2023-01-28T01:23:26;98090.65;;;-1.69;100.00
32492;BME280;20605;49.742;18.802;2023-01-28T01:31:07;98095.57;;;-1.70;100.00
32492;BME280;20605;49.742;18.802;2023-01-28T01:33:35;98097.96;;;-1.69;100.00
32492;BME280;20605;49.742;18.802;2023-01-28T01:36:01;98097.98;;;-1.69;100.00
32492;BME280;20605;49.742;18.802;2023-01-28T01:38:27;98101.05;;;-1.68;100.00
32492;BME280;20605;49.742;18.802;2023-01-28T01:40:58;98105.14;;;-1.69;100.00
32492;BME280;20605;49.742;18.802;2023-01-28T01:43:47;98106.30;;;-1.70;100.00
32492;BME280;20605;49.742;18.802;2023-01-28T01:46:19;98105.48;;;-1.69;100.00
32492;BME280;20605;49.742;18.802;2023-01-28T01:48:47;98104.85;;;-1.66;100.00
32492;BME280;20605;49.742;18.802;2023-01-28T01:51:17;98106.41;;;-1.65;100.00
32492;BME280;20605;49.742;18.802;2023-01-28T01:53:47;98110.85;;;-1.64;100.00
32492;BME280;20605;49.742;18.802;2023-01-28T01:56:18;98112.20;;;-1.65;100.00
32492;BME280;20605;49.742;18.802;2023-01-28T01:58:48;98115.61;;;-1.64;100.00
32492;BME280;20605;49.742;18.802;2023-01-28T02:01:15;98113.02;;;-1.67;100.00
32492;BME280;20605;49.742;18.802;2023-01-28T02:06:07;98115.45;;;-1.72;100.00
32492;BME280;20605;49.742;18.802;2023-01-28T02:08:33;98112.38;;;-1.72;100.00
32492;BME280;20605;49.742;18.802;2023-01-28T02:11:06;98109.00;;;-1.71;100.00
32492;BME280;20605;49.742;18.802;2023-01-28T02:13:38;98116.86;;;-1.69;100.00
32492;BME280;20605;49.742;18.802;2023-01-28T02:16:06;98116.08;;;-1.67;100.00
32492;BME280;20605;49.742;18.802;2023-01-28T02:18:33;98113.48;;;-1.68;100.00
32492;BME280;20605;49.742;18.802;2023-01-28T02:26:48;98116.77;;;-1.74;100.00
32492;BME280;20605;49.742;18.802;2023-01-28T02:29:26;98120.33;;;-1.74;100.00
32492;BME280;20605;49.742;18.802;2023-01-28T02:32:19;98120.53;;;-1.73;100.00
32492;BME280;20605;49.742;18.802;2023-01-28T02:37:58;98115.08;;;-1.74;100.00
32492;BME280;20605;49.742;18.802;2023-01-28T02:40:29;98112.67;;;-1.74;100.00
32492;BME280;20605;49.742;18.802;2023-01-28T02:42:56;98111.15;;;-1.74;100.00
32492;BME280;20605;49.742;18.802;2023-01-28T02:45:31;98110.95;;;-1.75;100.00
32492;BME280;20605;49.742;18.802;2023-01-28T02:48:17;98113.35;;;-1.75;100.00
32492;BME280;20605;49.742;18.802;2023-01-28T02:51:28;98115.20;;;-1.76;100.00
32492;BME280;20605;49.742;18.802;2023-01-28T02:53:56;98115.54;;;-1.76;100.00
32492;BME280;20605;49.742;18.802;2023-01-28T02:56:55;98115.02;;;-1.76;100.00
32492;BME280;20605;49.742;18.802;2023-01-28T02:59:33;98117.58;;;-1.76;100.00
32492;BME280;20605;49.742;18.802;2023-01-28T03:02:19;98118.77;;;-1.75;100.00
32492;BME280;20605;49.742;18.802;2023-01-28T03:04:58;98121.18;;;-1.74;100.00
32492;BME280;20605;49.742;18.802;2023-01-28T03:07:26;98118.77;;;-1.75;100.00
32492;BME280;20605;49.742;18.802;2023-01-28T03:09:57;98116.33;;;-1.78;100.00
32492;BME280;20605;49.742;18.802;2023-01-28T03:12:30;98119.70;;;-1.80;100.00
32492;BME280;20605;49.742;18.802;2023-01-28T03:15:22;98116.77;;;-1.82;100.00
32492;BME280;20605;49.742;18.802;2023-01-28T03:21:23;98118.09;;;-1.83;100.00
32492;BME280;20605;49.742;18.802;2023-01-28T03:24:12;98119.66;;;-1.81;100.00
32492;BME280;20605;49.742;18.802;2023-01-28T03:30:04;98119.08;;;-1.78;100.00
32492;BME280;20605;49.742;18.802;2023-01-28T03:32:50;98118.67;;;-1.80;100.00
32492;BME280;20605;49.742;18.802;2023-01-28T03:35:35;98116.92;;;-1.82;100.00
32492;BME280;20605;49.742;18.802;2023-01-28T03:38:20;98111.30;;;-1.83;100.00
32492;BME280;20605;49.742;18.802;2023-01-28T03:40:54;98112.49;;;-1.82;100.00
32492;BME280;20605;49.742;18.802;2023-01-28T03:43:21;98113.68;;;-1.82;100.00
32492;BME280;20605;49.742;18.802;2023-01-28T03:45:48;98117.44;;;-1.82;100.00
32492;BME280;20605;49.742;18.802;2023-01-28T03:48:18;98115.89;;;-1.83;100.00
32492;BME280;20605;49.742;18.802;2023-01-28T03:50:45;98117.92;;;-1.83;100.00
32492;BME280;20605;49.742;18.802;2023-01-28T03:53:11;98117.94;;;-1.82;100.00
32492;BME280;20605;49.742;18.802;2023-01-28T03:55:50;98122.19;;;-1.83;100.00
32492;BME280;20605;49.742;18.802;2023-01-28T03:58:16;98121.96;;;-1.85;100.00
32492;BME280;20605;49.742;18.802;2023-01-28T04:00:43;98127.90;;;-1.86;100.00
32492;BME280;20605;49.742;18.802;2023-01-28T04:03:12;98127.27;;;-1.83;100.00
32492;BME280;20605;49.742;18.802;2023-01-28T04:06:01;98132.79;;;-1.81;100.00
32492;BME280;20605;49.742;18.802;2023-01-28T04:08:51;98132.78;;;-1.81;100.00
32492;BME280;20605;49.742;18.802;2023-01-28T04:11:44;98130.14;;;-1.85;100.00
32492;BME280;20605;49.742;18.802;2023-01-28T04:14:14;98133.36;;;-1.85;100.00
32492;BME280;20605;49.742;18.802;2023-01-28T04:16:48;98130.30;;;-1.85;100.00
32492;BME280;20605;49.742;18.802;2023-01-28T04:19:14;98130.20;;;-1.82;100.00
32492;BME280;20605;49.742;18.802;2023-01-28T04:21:41;98130.63;;;-1.78;100.00
32492;BME280;20605;49.742;18.802;2023-01-28T04:24:07;98128.09;;;-1.77;100.00
32492;BME280;20605;49.742;18.802;2023-01-28T04:26:33;98129.97;;;-1.77;100.00
32492;BME280;20605;49.742;18.802;2023-01-28T04:28:59;98129.77;;;-1.79;100.00
32492;BME280;20605;49.742;18.802;2023-01-28T04:31:25;98132.81;;;-1.80;100.00
32492;BME280;20605;49.742;18.802;2023-01-28T04:33:58;98135.92;;;-1.78;100.00
32492;BME280;20605;49.742;18.802;2023-01-28T04:36:44;98139.20;;;-1.76;100.00
32492;BME280;20605;49.742;18.802;2023-01-28T04:39:22;98143.63;;;-1.75;100.00
32492;BME280;20605;49.742;18.802;2023-01-28T04:42:08;98144.64;;;-1.76;100.00
32492;BME280;20605;49.742;18.802;2023-01-28T04:45:09;98145.83;;;-1.76;100.00
32492;BME280;20605;49.742;18.802;2023-01-28T04:47:56;98149.05;;;-1.77;100.00
32492;BME280;20605;49.742;18.802;2023-01-28T04:50:27;98148.79;;;-1.73;100.00
32492;BME280;20605;49.742;18.802;2023-01-28T04:53:19;98147.75;;;-1.74;100.00
32492;BME280;20605;49.742;18.802;2023-01-28T04:56:00;98149.09;;;-1.75;100.00
32492;BME280;20605;49.742;18.802;2023-01-28T04:58:29;98149.38;;;-1.77;100.00
32492;BME280;20605;49.742;18.802;2023-01-28T05:00:59;98146.98;;;-1.78;100.00
32492;BME280;20605;49.742;18.802;2023-01-28T05:03:25;98149.35;;;-1.78;100.00
32492;BME280;20605;49.742;18.802;2023-01-28T05:05:52;98151.95;;;-1.76;100.00
32492;BME280;20605;49.742;18.802;2023-01-28T05:08:31;98156.59;;;-1.74;100.00
32492;BME280;20605;49.742;18.802;2023-01-28T05:10:56;98153.60;;;-1.71;100.00
32492;BME280;20605;49.742;18.802;2023-01-28T05:13:22;98153.95;;;-1.70;100.00
32492;BME280;20605;49.742;18.802;2023-01-28T05:15:52;98155.79;;;-1.72;100.00
32492;BME280;20605;49.742;18.802;2023-01-28T05:18:18;98156.95;;;-1.73;100.00
32492;BME280;20605;49.742;18.802;2023-01-28T05:20:51;98159.48;;;-1.74;100.00
32492;BME280;20605;49.742;18.802;2023-01-28T05:23:17;98158.96;;;-1.75;100.00
32492;BME280;20605;49.742;18.802;2023-01-28T05:25:50;98161.17;;;-1.75;100.00
32492;BME280;20605;49.742;18.802;2023-01-28T05:28:16;98163.38;;;-1.75;100.00
32492;BME280;20605;49.742;18.802;2023-01-28T05:30:42;98163.73;;;-1.75;100.00
32492;BME280;20605;49.742;18.802;2023-01-28T05:33:08;98165.64;;;-1.73;100.00
32492;BME280;20605;49.742;18.802;2023-01-28T05:35:34;98164.34;;;-1.71;100.00
32492;BME280;20605;49.742;18.802;2023-01-28T05:38:01;98165.21;;;-1.69;100.00
32492;BME280;20605;49.742;18.802;2023-01-28T05:40:27;98165.09;;;-1.67;100.00
32492;BME280;20605;49.742;18.802;2023-01-28T05:42:53;98165.27;;;-1.67;100.00
32492;BME280;20605;49.742;18.802;2023-01-28T05:45:27;98168.27;;;-1.69;100.00
32492;BME280;20605;49.742;18.802;2023-01-28T05:48:16;98174.66;;;-1.73;100.00
32492;BME280;20605;49.742;18.802;2023-01-28T05:50:49;98176.27;;;-1.77;100.00
32492;BME280;20605;49.742;18.802;2023-01-28T05:53:20;98177.33;;;-1.76;100.00
32492;BME280;20605;49.742;18.802;2023-01-28T05:55:48;98179.60;;;-1.73;100.00
32492;BME280;20605;49.742;18.802;2023-01-28T05:58:14;98180.63;;;-1.72;100.00
32492;BME280;20605;49.742;18.802;2023-01-28T06:00:41;98181.16;;;-1.72;100.00
32492;BME280;20605;49.742;18.802;2023-01-28T06:03:09;98187.23;;;-1.74;100.00
32492;BME280;20605;49.742;18.802;2023-01-28T06:05:42;98186.50;;;-1.76;100.00
32492;BME280;20605;49.742;18.802;2023-01-28T06:08:08;98187.69;;;-1.77;100.00
32492;BME280;20605;49.742;18.802;2023-01-28T06:10:35;98190.77;;;-1.76;100.00
32492;BME280;20605;49.742;18.802;2023-01-28T06:13:01;98195.04;;;-1.75;100.00
32492;BME280;20605;49.742;18.802;2023-01-28T06:15:38;98198.15;;;-1.73;100.00
32492;BME280;20605;49.742;18.802;2023-01-28T06:18:30;98203.98;;;-1.71;100.00
32492;BME280;20605;49.742;18.802;2023-01-28T06:20:57;98205.70;;;-1.71;100.00
32492;BME280;20605;49.742;18.802;2023-01-28T06:23:22;98207.14;;;-1.75;100.00
32492;BME280;20605;49.742;18.802;2023-01-28T06:25:53;98208.81;;;-1.76;100.00
32492;BME280;20605;49.742;18.802;2023-01-28T06:28:19;98219.34;;;-1.77;100.00
32492;BME280;20605;49.742;18.802;2023-01-28T06:30:48;98219.19;;;-1.76;100.00
32492;BME280;20605;49.742;18.802;2023-01-28T06:33:14;98224.94;;;-1.78;100.00
32492;BME280;20605;49.742;18.802;2023-01-28T06:35:40;98228.81;;;-1.80;100.00
32492;BME280;20605;49.742;18.802;2023-01-28T06:38:06;98231.63;;;-1.75;100.00
32492;BME280;20605;49.742;18.802;2023-01-28T06:40:31;98235.94;;;-1.74;100.00
32492;BME280;20605;49.742;18.802;2023-01-28T06:42:57;98236.29;;;-1.73;100.00
32492;BME280;20605;49.742;18.802;2023-01-28T06:45:23;98237.98;;;-1.74;100.00
32492;BME280;20605;49.742;18.802;2023-01-28T06:47:52;98236.59;;;-1.75;100.00
32492;BME280;20605;49.742;18.802;2023-01-28T06:50:18;98235.08;;;-1.74;100.00
32492;BME280;20605;49.742;18.802;2023-01-28T06:52:44;98237.27;;;-1.75;100.00
32492;BME280;20605;49.742;18.802;2023-01-28T06:55:10;98240.63;;;-1.76;100.00
32492;BME280;20605;49.742;18.802;2023-01-28T06:57:40;98239.06;;;-1.78;100.00
32492;BME280;20605;49.742;18.802;2023-01-28T07:00:07;98241.82;;;-1.77;100.00
32492;BME280;20605;49.742;18.802;2023-01-28T07:02:35;98245.48;;;-1.73;100.00
32492;BME280;20605;49.742;18.802;2023-01-28T07:05:02;98250.11;;;-1.72;100.00
32492;BME280;20605;49.742;18.802;2023-01-28T07:07:28;98252.16;;;-1.71;100.00
32492;BME280;20605;49.742;18.802;2023-01-28T07:09:54;98250.68;;;-1.69;100.00
32492;BME280;20605;49.742;18.802;2023-01-28T07:12:20;98252.41;;;-1.68;100.00
32492;BME280;20605;49.742;18.802;2023-01-28T07:14:46;98260.44;;;-1.67;100.00
32492;BME280;20605;49.742;18.802;2023-01-28T07:17:12;98260.08;;;-1.68;100.00
32492;BME280;20605;49.742;18.802;2023-01-28T07:19:37;98260.79;;;-1.67;100.00
32492;BME280;20605;49.742;18.802;2023-01-28T07:22:03;98264.90;;;-1.66;100.00
32492;BME280;20605;49.742;18.802;2023-01-28T07:24:29;98265.81;;;-1.62;100.00
32492;BME280;20605;49.742;18.802;2023-01-28T07:26:55;98266.61;;;-1.58;100.00
32492;BME280;20605;49.742;18.802;2023-01-28T07:29:21;98269.95;;;-1.53;100.00
32492;BME280;20605;49.742;18.802;2023-01-28T07:31:47;98265.92;;;-1.51;100.00
32492;BME280;20605;49.742;18.802;2023-01-28T07:34:13;98270.50;;;-1.52;100.00
32492;BME280;20605;49.742;18.802;2023-01-28T07:36:39;98270.14;;;-1.53;100.00
32492;BME280;20605;49.742;18.802;2023-01-28T07:39:05;98272.71;;;-1.52;100.00
32492;BME280;20605;49.742;18.802;2023-01-28T07:41:34;98275.97;;;-1.51;100.00
32492;BME280;20605;49.742;18.802;2023-01-28T07:44:04;98276.64;;;-1.51;100.00
32492;BME280;20605;49.742;18.802;2023-01-28T07:46:30;98273.95;;;-1.49;100.00
32492;BME280;20605;49.742;18.802;2023-01-28T07:48:56;98274.55;;;-1.46;100.00
32492;BME280;20605;49.742;18.802;2023-01-28T07:51:22;98281.77;;;-1.43;100.00
32492;BME280;20605;49.742;18.802;2023-01-28T07:53:48;98285.60;;;-1.39;100.00
32492;BME280;20605;49.742;18.802;2023-01-28T07:56:13;98285.10;;;-1.39;100.00
32492;BME280;20605;49.742;18.802;2023-01-28T07:58:39;98284.62;;;-1.38;100.00
32492;BME280;20605;49.742;18.802;2023-01-28T08:01:05;98288.23;;;-1.36;100.00
32492;BME280;20605;49.742;18.802;2023-01-28T08:03:31;98285.75;;;-1.33;100.00
32492;BME280;20605;49.742;18.802;2023-01-28T08:05:57;98287.30;;;-1.32;100.00
32492;BME280;20605;49.742;18.802;2023-01-28T08:08:24;98291.44;;;-1.28;100.00
32492;BME280;20605;49.742;18.802;2023-01-28T08:10:51;98289.38;;;-1.31;100.00
32492;BME280;20605;49.742;18.802;2023-01-28T08:13:18;98290.16;;;-1.34;100.00
32492;BME280;20605;49.742;18.802;2023-01-28T08:15:45;98288.94;;;-1.35;100.00
32492;BME280;20605;49.742;18.802;2023-01-28T08:18:13;98289.50;;;-1.33;100.00
32492;BME280;20605;49.742;18.802;2023-01-28T08:20:40;98293.10;;;-1.32;100.00
32492;BME280;20605;49.742;18.802;2023-01-28T08:23:14;98293.25;;;-1.33;100.00
32492;BME280;20605;49.742;18.802;2023-01-28T08:25:41;98291.89;;;-1.33;100.00
32492;BME280;20605;49.742;18.802;2023-01-28T08:28:07;98291.74;;;-1.31;100.00
32492;BME280;20605;49.742;18.802;2023-01-28T08:30:34;98291.33;;;-1.26;100.00
32492;BME280;20605;49.742;18.802;2023-01-28T08:33:03;98295.90;;;-1.19;100.00
32492;BME280;20605;49.742;18.802;2023-01-28T08:35:29;98297.82;;;-1.18;100.00
32492;BME280;20605;49.742;18.802;2023-01-28T08:37:59;98302.73;;;-1.19;100.00
32492;BME280;20605;49.742;18.802;2023-01-28T08:40:25;98302.65;;;-1.22;100.00
32492;BME280;20605;49.742;18.802;2023-01-28T08:42:52;98306.39;;;-1.23;100.00
32492;BME280;20605;49.742;18.802;2023-01-28T08:45:19;98303.73;;;-1.20;100.00
32492;BME280;20605;49.742;18.802;2023-01-28T08:47:55;98310.73;;;-1.20;100.00
32492;BME280;20605;49.742;18.802;2023-01-28T08:50:23;98316.73;;;-1.18;100.00
32492;BME280;20605;49.742;18.802;2023-01-28T08:53:01;98320.39;;;-1.14;100.00
32492;BME280;20605;49.742;18.802;2023-01-28T08:55:29;98316.91;;;-1.17;100.00
32492;BME280;20605;49.742;18.802;2023-01-28T08:57:55;98318.44;;;-1.18;100.00
32492;BME280;20605;49.742;18.802;2023-01-28T09:00:21;98321.02;;;-1.16;100.00
32492;BME280;20605;49.742;18.802;2023-01-28T09:02:51;98324.00;;;-1.13;100.00
32492;BME280;20605;49.742;18.802;2023-01-28T09:05:18;98328.32;;;-1.10;100.00
32492;BME280;20605;49.742;18.802;2023-01-28T09:07:44;98330.80;;;-1.06;100.00
32492;BME280;20605;49.742;18.802;2023-01-28T09:10:10;98333.96;;;-1.02;100.00
32492;BME280;20605;49.742;18.802;2023-01-28T09:12:36;98337.23;;;-1.00;100.00
32492;BME280;20605;49.742;18.802;2023-01-28T09:15:03;98335.39;;;-0.99;100.00
32492;BME280;20605;49.742;18.802;2023-01-28T09:17:29;98336.08;;;-0.99;100.00
32492;BME280;20605;49.742;18.802;2023-01-28T09:19:55;98337.34;;;-0.95;100.00
32492;BME280;20605;49.742;18.802;2023-01-28T09:22:21;98338.77;;;-0.93;100.00
32492;BME280;20605;49.742;18.802;2023-01-28T09:24:47;98338.77;;;-0.92;100.00
32492;BME280;20605;49.742;18.802;2023-01-28T09:27:13;98335.34;;;-0.94;100.00
32492;BME280;20605;49.742;18.802;2023-01-28T09:29:39;98343.49;;;-0.95;100.00
32492;BME280;20605;49.742;18.802;2023-01-28T09:32:06;98337.02;;;-0.95;100.00
32492;BME280;20605;49.742;18.802;2023-01-28T09:34:32;98336.84;;;-0.95;100.00
32492;BME280;20605;49.742;18.802;2023-01-28T09:36:58;98335.66;;;-0.94;100.00
32492;BME280;20605;49.742;18.802;2023-01-28T09:39:24;98334.42;;;-0.96;100.00
32492;BME280;20605;49.742;18.802;2023-01-28T09:50:27;98336.06;;;-0.92;100.00
32492;BME280;20605;49.742;18.802;2023-01-28T09:53:01;98336.95;;;-0.90;100.00
32492;BME280;20605;49.742;18.802;2023-01-28T09:55:37;98339.45;;;-0.85;100.00
32492;BME280;20605;49.742;18.802;2023-01-28T09:58:21;98342.71;;;-0.84;100.00
32492;BME280;20605;49.742;18.802;2023-01-28T10:03:39;98343.55;;;-0.92;100.00
32492;BME280;20605;49.742;18.802;2023-01-28T10:11:49;98337.95;;;-0.99;100.00
32492;BME280;20605;49.742;18.802;2023-01-28T10:17:53;98342.26;;;-0.89;100.00
32492;BME280;20605;49.742;18.802;2023-01-28T10:20:26;98339.33;;;-0.82;100.00
32492;BME280;20605;49.742;18.802;2023-01-28T10:23:13;98337.33;;;-0.80;100.00
32492;BME280;20605;49.742;18.802;2023-01-28T10:25:41;98339.27;;;-0.78;100.00
32492;BME280;20605;49.742;18.802;2023-01-28T10:28:33;98336.75;;;-0.76;100.00
32492;BME280;20605;49.742;18.802;2023-01-28T10:30:59;98335.61;;;-0.73;100.00
32492;BME280;20605;49.742;18.802;2023-01-28T10:33:35;98328.91;;;-0.76;100.00
32492;BME280;20605;49.742;18.802;2023-01-28T10:36:02;98332.58;;;-0.79;100.00
32492;BME280;20605;49.742;18.802;2023-01-28T10:38:29;98330.98;;;-0.82;100.00
32492;BME280;20605;49.742;18.802;2023-01-28T10:41:02;98328.25;;;-0.83;100.00
32492;BME280;20605;49.742;18.802;2023-01-28T10:43:31;98326.54;;;-0.83;100.00
32492;BME280;20605;49.742;18.802;2023-01-28T10:46:05;98329.66;;;-0.80;100.00
32492;BME280;20605;49.742;18.802;2023-01-28T10:48:35;98328.23;;;-0.75;100.00
32492;BME280;20605;49.742;18.802;2023-01-28T10:51:04;98334.13;;;-0.71;100.00
32492;BME280;20605;49.742;18.802;2023-01-28T10:53:38;98330.30;;;-0.67;100.00
32492;BME280;20605;49.742;18.802;2023-01-28T10:56:26;98333.56;;;-0.65;100.00
32492;BME280;20605;49.742;18.802;2023-01-28T10:59:05;98328.80;;;-0.65;100.00
32492;BME280;20605;49.742;18.802;2023-01-28T11:01:55;98326.09;;;-0.64;100.00
32492;BME280;20605;49.742;18.802;2023-01-28T11:04:24;98331.59;;;-0.62;100.00
32492;BME280;20605;49.742;18.802;2023-01-28T11:06:55;98329.02;;;-0.62;100.00
32492;BME280;20605;49.742;18.802;2023-01-28T11:09:32;98330.30;;;-0.58;100.00
32492;BME280;20605;49.742;18.802;2023-01-28T11:12:17;98325.77;;;-0.55;100.00
32492;BME280;20605;49.742;18.802;2023-01-28T11:14:52;98326.86;;;-0.51;100.00
32492;BME280;20605;49.742;18.802;2023-01-28T11:17:22;98329.00;;;-0.47;100.00
32492;BME280;20605;49.742;18.802;2023-01-28T11:19:51;98330.26;;;-0.44;100.00
32492;BME280;20605;49.742;18.802;2023-01-28T11:22:23;98327.66;;;-0.46;100.00
32492;BME280;20605;49.742;18.802;2023-01-28T11:24:52;98327.95;;;-0.48;100.00
32492;BME280;20605;49.742;18.802;2023-01-28T11:27:23;98327.39;;;-0.50;100.00
32492;BME280;20605;49.742;18.802;2023-01-28T11:29:52;98331.02;;;-0.48;100.00
32492;BME280;20605;49.742;18.802;2023-01-28T11:32:24;98334.73;;;-0.42;100.00
32492;BME280;20605;49.742;18.802;2023-01-28T11:34:52;98331.68;;;-0.41;100.00
32492;BME280;20605;49.742;18.802;2023-01-28T11:37:20;98329.73;;;-0.45;100.00
32492;BME280;20605;49.742;18.802;2023-01-28T11:39:47;98330.44;;;-0.51;100.00
32492;BME280;20605;49.742;18.802;2023-01-28T11:42:17;98330.03;;;-0.55;100.00
32492;BME280;20605;49.742;18.802;2023-01-28T11:44:44;98330.90;;;-0.54;100.00
32492;BME280;20605;49.742;18.802;2023-01-28T11:47:35;98330.05;;;-0.54;100.00
32492;BME280;20605;49.742;18.802;2023-01-28T11:50:21;98328.66;;;-0.55;100.00
32492;BME280;20605;49.742;18.802;2023-01-28T11:55:46;98326.77;;;-0.56;100.00
32492;BME280;20605;49.742;18.802;2023-01-28T11:58:21;98325.07;;;-0.55;100.00
32492;BME280;20605;49.742;18.802;2023-01-28T12:09:04;98329.49;;;-0.48;100.00
32492;BME280;20605;49.742;18.802;2023-01-28T12:20:15;98324.77;;;-0.54;100.00
32492;BME280;20605;49.742;18.802;2023-01-28T12:25:39;98327.40;;;-0.58;100.00
32492;BME280;20605;49.742;18.802;2023-01-28T12:41:30;98338.84;;;-0.66;100.00
32492;BME280;20605;49.742;18.802;2023-01-28T12:44:02;98337.30;;;-0.66;100.00
32492;BME280;20605;49.742;18.802;2023-01-28T12:49:23;98342.54;;;-0.68;100.00
32492;BME280;20605;49.742;18.802;2023-01-28T12:54:37;98343.40;;;-0.60;100.00
32492;BME280;20605;49.742;18.802;2023-01-28T12:57:04;98350.01;;;-0.54;100.00
32492;BME280;20605;49.742;18.802;2023-01-28T12:59:38;98348.37;;;-0.51;100.00
32492;BME280;20605;49.742;18.802;2023-01-28T13:07:52;98355.15;;;-0.52;100.00
32492;BME280;20605;49.742;18.802;2023-01-28T13:12:46;98357.20;;;-0.60;100.00
32492;BME280;20605;49.742;18.802;2023-01-28T13:15:15;98359.61;;;-0.67;100.00
32492;BME280;20605;49.742;18.802;2023-01-28T13:17:58;98361.40;;;-0.71;100.00
32492;BME280;20605;49.742;18.802;2023-01-28T13:20:47;98362.42;;;-0.71;100.00
32492;BME280;20605;49.742;18.802;2023-01-28T13:25:53;98363.11;;;-0.71;100.00
32492;BME280;20605;49.742;18.802;2023-01-28T13:28:28;98361.55;;;-0.64;100.00
32492;BME280;20605;49.742;18.802;2023-01-28T13:31:04;98364.13;;;-0.55;100.00
32492;BME280;20605;49.742;18.802;2023-01-28T13:33:35;98364.66;;;-0.46;100.00
32492;BME280;20605;49.742;18.802;2023-01-28T13:38:42;98367.46;;;-0.34;100.00
32492;BME280;20605;49.742;18.802;2023-01-28T13:41:09;98364.80;;;-0.31;100.00
32492;BME280;20605;49.742;18.802;2023-01-28T13:43:40;98364.11;;;-0.31;100.00
32492;BME280;20605;49.742;18.802;2023-01-28T13:46:11;98363.19;;;-0.26;100.00
32492;BME280;20605;49.742;18.802;2023-01-28T13:48:52;98363.16;;;-0.19;100.00
32492;BME280;20605;49.742;18.802;2023-01-28T13:51:26;98366.04;;;-0.21;100.00
32492;BME280;20605;49.742;18.802;2023-01-28T13:56:27;98373.26;;;-0.26;100.00
32492;BME280;20605;49.742;18.802;2023-01-28T14:07:25;98381.61;;;-0.36;100.00
32492;BME280;20605;49.742;18.802;2023-01-28T14:20:50;98392.58;;;-0.49;100.00
32492;BME280;20605;49.742;18.802;2023-01-28T14:23:18;98390.14;;;-0.51;100.00
32492;BME280;20605;49.742;18.802;2023-01-28T14:31:21;98394.75;;;-0.51;100.00
32492;BME280;20605;49.742;18.802;2023-01-28T14:33:53;98393.13;;;-0.48;100.00
32492;BME280;20605;49.742;18.802;2023-01-28T14:36:19;98396.15;;;-0.42;100.00
32492;BME280;20605;49.742;18.802;2023-01-28T14:38:45;98397.83;;;-0.43;100.00
32492;BME280;20605;49.742;18.802;2023-01-28T14:41:24;98398.81;;;-0.45;100.00
32492;BME280;20605;49.742;18.802;2023-01-28T14:43:53;98402.05;;;-0.45;100.00
32492;BME280;20605;49.742;18.802;2023-01-28T14:46:45;98397.08;;;-0.46;100.00
32492;BME280;20605;49.742;18.802;2023-01-28T14:54:41;98404.52;;;-0.57;100.00
32492;BME280;20605;49.742;18.802;2023-01-28T14:59:55;98405.87;;;-0.65;100.00
32492;BME280;20605;49.742;18.802;2023-01-28T15:02:27;98404.95;;;-0.68;100.00
32492;BME280;20605;49.742;18.802;2023-01-28T15:04:54;98412.23;;;-0.70;100.00
32492;BME280;20605;49.742;18.802;2023-01-28T15:07:23;98414.13;;;-0.69;100.00
32492;BME280;20605;49.742;18.802;2023-01-28T15:10:10;98419.12;;;-0.68;100.00
32492;BME280;20605;49.742;18.802;2023-01-28T15:12:40;98423.85;;;-0.70;100.00
32492;BME280;20605;49.742;18.802;2023-01-28T15:15:13;98421.63;;;-0.70;100.00